ADDS METAR Data INFO
IDs: Format: Raw Decoded Include TAF

Data at: 2337 UTC 18 Feb 2018

KELA 182315Z AUTO 18016KT 10SM SCT031 25/18 A2999 RMK AO2 T02450184
KELA 182255Z AUTO 16014G18KT 10SM SCT031 SCT042 25/19 A2999 RMK AO2 T02500186
KELA 182235Z AUTO 17015G19KT 10SM SCT031 SCT035 SCT050 26/19 A2999 RMK AO2 T02600192
KELA 182215Z AUTO 18013KT 10SM SCT043 SCT050 26/19 A2999 RMK AO2 T02600192
KELA 182155Z AUTO 16014G18KT 10SM SCT032 BKN044 BKN050 26/19 A3000 RMK AO2 T02550193
KELA 182135Z AUTO 16015G19KT 10SM SCT032 SCT040 BKN055 26/19 A3000 RMK AO2 T02630189
KELA 182115Z AUTO 18011G18KT 10SM SCT030 SCT040 BKN050 26/19 A3000 RMK AO2 T02610194
KELA 182055Z AUTO 17014G17KT 10SM SCT032 SCT039 BKN060 27/19 A3001 RMK AO2 T02660193
KELA 182035Z AUTO 18014G19KT 10SM SCT026 SCT032 BKN041 26/19 A3002 RMK AO2 T02620194
KELA 182015Z AUTO 18010G17KT 10SM SCT029 BKN036 BKN050 26/20 A3002 RMK AO2 T02570199
KELA 181955Z AUTO 19008KT 10SM SCT030 BKN037 OVC080 26/20 A3004 RMK AO2 T02630201
KELA 181935Z AUTO 17012G16KT 10SM SCT028 BKN039 OVC080 25/20 A3005 RMK AO2 T02530195
KELA 181915Z AUTO 17012KT 10SM BKN025 BKN033 OVC049 26/20 A3005 RMK AO2 T02570197
KELA 181855Z AUTO 17009KT 10SM BKN022 OVC029 25/20 A3007 RMK AO2 T02510203
KELA 181835Z AUTO 17006KT 10SM SCT016 BKN023 OVC034 24/20 A3008 RMK AO2 T02420202
KELA 181815Z AUTO 17006KT 10SM BKN012 BKN019 BKN035 25/20 A3010 RMK AO2 T02450204
KELA 181755Z AUTO 15007KT 10SM BKN010 23/20 A3011 RMK AO2 T02340201 10234 20150
KELA 181735Z AUTO 14008KT 10SM OVC006 22/20 A3012 RMK AO2 T02160195
KELA 181715Z AUTO 12007KT 5SM BR OVC004 21/19 A3012 RMK AO2 T02060194
KELA 181655Z AUTO 13006KT 1 1/4SM BR OVC002 19/19 A3014 RMK AO2 VIS 1/2V2 1/2 T01870185
KELA 181635Z AUTO 09004KT 1/4SM FG OVC002 18/18 A3014 RMK AO2 T01800180
KELA 181615Z AUTO 12004KT 1/2SM FG OVC002 18/18 A3014 RMK AO2 T01760176
KELA 181555Z AUTO 10005KT 1/4SM FG OVC002 17/17 A3014 RMK AO2 T01710171
KELA 181535Z AUTO 09003KT 1/4SM FG OVC002 16/16 A3014 RMK AO2 T01640164
KELA 181515Z AUTO 09003KT 1/4SM FG OVC002 16/16 A3013 RMK AO2 T01610161
KELA 181455Z AUTO 00000KT 1/2SM FG OVC002 16/16 A3013 RMK AO2 T01580158
KELA 181435Z AUTO 08005KT 1/2SM FG OVC002 16/16 A3012 RMK AO2 T01550155
KELA 181415Z AUTO 08004KT 1/2SM FG OVC002 15/15 A3012 RMK AO2 T01530153
KELA 181355Z AUTO 08003KT 1/2SM FG OVC004 15/15 A3012 RMK AO2 T01510150
KELA 181335Z AUTO 06003KT 1 1/2SM BR OVC004 15/15 A3012 RMK AO2 T01500148
KELA 181315Z AUTO 07003KT 2SM BR OVC004 15/15 A3011 RMK AO2 T01500147
KELA 181255Z AUTO 07004KT 5SM BR OVC006 15/15 A3011 RMK AO2 T01510145
KELA 181235Z AUTO 06005KT 7SM OVC006 15/14 A3011 RMK AO2 T01510143
KELA 181215Z AUTO 04003KT 7SM OVC006 15/14 A3011 RMK AO2 T01500142
KELA 181155Z AUTO 05006KT 10SM OVC008 15/14 A3010 RMK AO2 T01500141 10150 20143
KELA 181135Z AUTO 06005KT 10SM OVC008 15/14 A3010 RMK AO2 T01490140
KELA 181115Z AUTO 06004KT 10SM OVC008 15/14 A3010 RMK AO2 T01470140
KELA 181055Z AUTO 05003KT 10SM OVC008 15/14 A3010 RMK AO2 T01470140
KELA 181035Z AUTO 00000KT 10SM OVC010 15/14 A3011 RMK AO2 T01460140
KELA 181015Z AUTO 03004KT 10SM OVC010 15/14 A3011 RMK AO2 T01460141
KELA 180955Z AUTO 03004KT 7SM OVC010 15/14 A3011 RMK AO2 T01450140
KELA 180935Z AUTO 03005KT 7SM OVC010 15/14 A3011 RMK AO2 T01450140
KELA 180915Z AUTO 03006KT 5SM BR OVC010 15/14 A3011 RMK AO2 T01450140
KELA 180855Z AUTO 04005KT 7SM OVC012 15/14 A3011 RMK AO2 T01450139
KELA 180835Z AUTO 04006KT 10SM OVC012 15/14 A3011 RMK AO2 T01470137
KELA 180815Z AUTO 04007KT 10SM OVC012 15/14 A3011 RMK AO2 T01470136
KELA 180755Z AUTO 03006KT 10SM OVC012 15/14 A3011 RMK AO2 T01460136
KELA 180735Z AUTO 03007KT 10SM OVC012 15/14 A3012 RMK AO2 T01460136
KELA 180715Z AUTO 03006KT 10SM BKN014 OVC025 15/14 A3012 RMK AO2 T01450136
KELA 180655Z AUTO 04007KT 10SM BKN016 OVC025 15/14 A3012 RMK AO2 T01450135
KELA 180635Z AUTO 03007KT 10SM BKN018 OVC025 15/14 A3012 RMK AO2 T01450135
KELA 180615Z AUTO 02007KT 10SM BKN020 OVC025 15/14 A3013 RMK AO2 T01450135
KELA 180555Z AUTO 01006KT 10SM BKN019 OVC025 15/14 A3013 RMK AO2 T01460135 10170 20146 402250145
KELA 180535Z AUTO 02007KT 10SM SCT017 OVC026 15/14 A3013 RMK AO2 T01480135
KELA 180515Z AUTO 03007KT 10SM BKN017 OVC028 15/13 A3013 RMK AO2 T01500133
KELA 180455Z AUTO 02006KT 10SM BKN017 OVC024 15/13 A3014 RMK AO2 T01500132
KELA 180435Z AUTO 03005KT 10SM OVC018 15/13 A3014 RMK AO2 T01520130
KELA 180415Z AUTO 02003KT 10SM OVC020 16/13 A3015 RMK AO2 T01550128
KELA 180355Z AUTO 04005KT 10SM OVC022 16/13 A3015 RMK AO2 T01550127
KELA 180335Z AUTO 05007KT 10SM OVC022 16/13 A3015 RMK AO2 T01550125
KELA 180315Z AUTO 05008KT 10SM OVC022 16/13 A3015 RMK AO2 T01560125
KELA 180255Z AUTO 04007KT 10SM OVC022 16/13 A3015 RMK AO2 T01560126
KELA 180235Z AUTO 03006KT 10SM OVC024 16/13 A3015 RMK AO2 T01560125
KELA 180215Z AUTO 07003KT 10SM OVC024 16/12 A3015 RMK AO2 T01550123
KELA 180155Z AUTO 05005KT 10SM BKN024 OVC032 15/12 A3014 RMK AO2 T01530121
KELA 180130Z AUTO 04005KT 10SM OVC022 15/12 A3014 RMK AO2 T01520117
KELA 180115Z AUTO 03009KT 10SM OVC022 15/12 A3013 RMK AO2 T01510116
KELA 180055Z AUTO 01007KT 10SM OVC024 15/12 A3013 RMK AO2 T01480115
KELA 180035Z AUTO 01009G17KT 10SM OVC024 15/12 A3012 RMK AO2 T01520115
KELA 180015Z AUTO 02012G17KT 10SM OVC024 16/12 A3012 RMK AO2 T01610117
KELA 172355Z AUTO 03012G16KT 10SM OVC024 17/13 A3011 RMK AO2 T01710126 10225 20151
KELA 172335Z AUTO 02011G15KT 10SM OVC024 18/13 A3010 RMK AO2 T01800130
KELA 172315Z AUTO 02011G15KT 10SM OVC024 19/14 A3010 RMK AO2 T01850142
KELA 172255Z AUTO 01013G17KT 10SM OVC024 19/15 A3009 RMK AO2 T01940148
KELA 172235Z AUTO 36008KT 10SM BKN026 OVC031 22/17 A3008 RMK AO2 T02160172
KELA 172215Z AUTO 35004KT 10SM BKN031 OVC038 22/17 A3007 RMK AO2 T02180171
KELA 172155Z AUTO 36004KT 10SM SCT033 BKN038 OVC095 22/17 A3007 RMK AO2 T02220169
KELA 172135Z AUTO 00000KT 7SM OVC095 22/17 A3006 RMK AO2 T02240169
KELA 172115Z AUTO 00000KT 10SM OVC095 22/17 A3007 RMK AO2 T02150165
KELA 172055Z AUTO 00000KT 10SM SCT095 22/16 A3007 RMK AO2 T02160159
KELA 172035Z AUTO 13003KT 10SM CLR 21/15 A3006 RMK AO2 T02050149
KELA 172015Z AUTO 10004KT 10SM CLR 19/14 A3007 RMK AO2 T01890135
KELA 171955Z AUTO 13005KT 10SM SCT010 SCT055 18/13 A3008 RMK AO2 T01790125
KELA 171935Z AUTO 06004KT 10SM OVC012 16/12 A3009 RMK AO2 T01600116
KELA 171915Z AUTO 01008KT 10SM OVC012 16/12 A3011 RMK AO2 T01550115
KELA 171855Z AUTO 36010KT 10SM OVC012 15/11 A3012 RMK AO2 T01530114
KELA 171835Z AUTO 01009KT 10SM OVC010 16/12 A3013 RMK AO2 T01610120
KELA 171815Z AUTO 03009KT 10SM OVC010 16/13 A3013 RMK AO2 T01640127
KELA 171755Z AUTO 02008KT 10SM OVC008 16/13 A3014 RMK AO2 T01600131 10168 20145
KELA 171735Z AUTO 02008KT 10SM OVC008 15/13 A3015 RMK AO2 T01520128
KELA 171715Z AUTO 01009KT 10SM OVC008 15/13 A3015 RMK AO2 T01480130
KELA 171655Z AUTO 36006KT 10SM OVC008 15/13 A3015 RMK AO2 T01490133
KELA 171635Z AUTO 36009KT 10SM OVC006 15/13 A3015 RMK AO2 T01450134
KELA 171615Z AUTO 35008KT 10SM OVC006 15/14 A3014 RMK AO2 T01490140
KELA 171555Z AUTO 35006KT 7SM OVC006 15/14 A3013 RMK AO2 T01500143
KELA 171535Z AUTO 36006KT 10SM OVC006 15/14 A3012 RMK AO2 T01500143
KELA 171515Z AUTO 34005KT 10SM OVC006 15/14 A3012 RMK AO2 T01500144
KELA 171455Z AUTO 35004KT 10SM OVC006 15/15 A3011 RMK AO2 T01520147
KELA 171435Z AUTO 35004KT 10SM -DZ OVC004 16/15 A3010 RMK AO2 T01550150
KELA 171415Z AUTO 34005KT 5SM -DZ OVC004 16/16 A3010 RMK AO2 T01600157
KELA 171355Z AUTO 34003KT 4SM -DZ OVC004 17/17 A3009 RMK AO2 T01660165
KELA 171335Z AUTO 02004KT 3SM DZ OVC004 17/17 A3007 RMK AO2 T01660165
KELA 171315Z AUTO 00000KT 5SM RA OVC004 17/16 A3007 RMK AO2 T01650161
KELA 171255Z AUTO 00000KT 7SM OVC004 17/16 A3006 RMK AO2 T01650160
KELA 171235Z AUTO 00000KT 7SM OVC004 17/16 A3005 RMK AO2 T01660161
KELA 171215Z AUTO 02004KT 7SM RA OVC004 17/16 A3004 RMK AO2 T01660156
KELA 171155Z AUTO 36003KT 10SM OVC004 17/15 A3003 RMK AO2 T01680153 10175 20166